sensor_id;sensor_type;location;lat;lon;timestamp;temperature;humidity
21662;DHT22;10992;48.170;8.596;2023-02-19T00:01:45;7.60;99.90
21662;DHT22;10992;48.170;8.596;2023-02-19T00:04:15;7.60;99.90
21662;DHT22;10992;48.170;8.596;2023-02-19T00:06:43;7.50;99.90
21662;DHT22;10992;48.170;8.596;2023-02-19T00:09:12;7.50;99.90
21662;DHT22;10992;48.170;8.596;2023-02-19T00:11:42;7.50;99.90
21662;DHT22;10992;48.170;8.596;2023-02-19T00:14:13;7.50;99.90
21662;DHT22;10992;48.170;8.596;2023-02-19T00:16:40;7.50;99.90
21662;DHT22;10992;48.170;8.596;2023-02-19T00:19:12;7.60;99.90
21662;DHT22;10992;48.170;8.596;2023-02-19T00:21:39;7.60;99.90
21662;DHT22;10992;48.170;8.596;2023-02-19T00:24:07;7.70;99.90
21662;DHT22;10992;48.170;8.596;2023-02-19T00:26:34;7.80;99.90
21662;DHT22;10992;48.170;8.596;2023-02-19T00:29:01;7.90;99.90
21662;DHT22;10992;48.170;8.596;2023-02-19T00:31:30;8.00;99.90
21662;DHT22;10992;48.170;8.596;2023-02-19T00:34:02;8.10;99.90
21662;DHT22;10992;48.170;8.596;2023-02-19T00:36:30;8.10;99.90
21662;DHT22;10992;48.170;8.596;2023-02-19T00:38:57;8.20;99.90
21662;DHT22;10992;48.170;8.596;2023-02-19T00:41:25;8.10;99.90
21662;DHT22;10992;48.170;8.596;2023-02-19T00:43:59;8.00;99.90
21662;DHT22;10992;48.170;8.596;2023-02-19T00:46:34;8.00;99.90
21662;DHT22;10992;48.170;8.596;2023-02-19T00:49:02;7.90;99.90
21662;DHT22;10992;48.170;8.596;2023-02-19T00:51:31;7.90;99.90
21662;DHT22;10992;48.170;8.596;2023-02-19T00:53:59;8.00;99.90
21662;DHT22;10992;48.170;8.596;2023-02-19T00:56:26;8.00;99.90
21662;DHT22;10992;48.170;8.596;2023-02-19T00:58:53;8.00;99.90
21662;DHT22;10992;48.170;8.596;2023-02-19T01:01:21;8.10;99.90
21662;DHT22;10992;48.170;8.596;2023-02-19T01:03:49;8.20;99.90
21662;DHT22;10992;48.170;8.596;2023-02-19T01:06:18;8.20;99.90
21662;DHT22;10992;48.170;8.596;2023-02-19T01:08:45;8.20;99.90
21662;DHT22;10992;48.170;8.596;2023-02-19T01:11:14;8.20;99.90
21662;DHT22;10992;48.170;8.596;2023-02-19T01:13:41;8.20;99.90
21662;DHT22;10992;48.170;8.596;2023-02-19T01:16:15;8.20;99.90
21662;DHT22;10992;48.170;8.596;2023-02-19T01:18:43;8.20;99.90
21662;DHT22;10992;48.170;8.596;2023-02-19T01:21:17;8.20;99.90
21662;DHT22;10992;48.170;8.596;2023-02-19T01:23:45;8.30;99.90
21662;DHT22;10992;48.170;8.596;2023-02-19T01:26:15;8.30;99.90
21662;DHT22;10992;48.170;8.596;2023-02-19T01:28:42;8.30;99.90
21662;DHT22;10992;48.170;8.596;2023-02-19T01:31:13;8.30;99.90
21662;DHT22;10992;48.170;8.596;2023-02-19T01:33:49;8.20;99.90
21662;DHT22;10992;48.170;8.596;2023-02-19T01:36:17;8.20;99.90
21662;DHT22;10992;48.170;8.596;2023-02-19T01:38:44;8.30;99.90
21662;DHT22;10992;48.170;8.596;2023-02-19T01:41:14;8.30;99.90
21662;DHT22;10992;48.170;8.596;2023-02-19T01:46:31;8.30;99.90
21662;DHT22;10992;48.170;8.596;2023-02-19T01:51:38;8.30;99.90
21662;DHT22;10992;48.170;8.596;2023-02-19T01:54:09;8.30;99.90
21662;DHT22;10992;48.170;8.596;2023-02-19T01:56:38;8.30;99.90
21662;DHT22;10992;48.170;8.596;2023-02-19T01:59:07;8.30;99.90
21662;DHT22;10992;48.170;8.596;2023-02-19T02:01:36;8.30;99.90
21662;DHT22;10992;48.170;8.596;2023-02-19T02:04:05;8.20;99.90
21662;DHT22;10992;48.170;8.596;2023-02-19T02:06:38;8.20;99.90
21662;DHT22;10992;48.170;8.596;2023-02-19T02:09:08;8.20;99.90
21662;DHT22;10992;48.170;8.596;2023-02-19T02:11:54;8.20;99.90
21662;DHT22;10992;48.170;8.596;2023-02-19T02:14:25;8.20;99.90
21662;DHT22;10992;48.170;8.596;2023-02-19T02:17:23;8.20;99.90
21662;DHT22;10992;48.170;8.596;2023-02-19T02:22:40;8.20;99.90
21662;DHT22;10992;48.170;8.596;2023-02-19T02:30:45;8.20;99.90
21662;DHT22;10992;48.170;8.596;2023-02-19T02:36:06;8.20;99.90
21662;DHT22;10992;48.170;8.596;2023-02-19T02:38:39;8.20;99.90
21662;DHT22;10992;48.170;8.596;2023-02-19T02:41:07;8.10;99.90
21662;DHT22;10992;48.170;8.596;2023-02-19T02:43:35;8.10;99.90
21662;DHT22;10992;48.170;8.596;2023-02-19T02:46:03;8.10;99.90
21662;DHT22;10992;48.170;8.596;2023-02-19T02:51:16;8.10;99.90
21662;DHT22;10992;48.170;8.596;2023-02-19T02:53:57;8.10;99.90
21662;DHT22;10992;48.170;8.596;2023-02-19T02:56:47;8.00;99.90
21662;DHT22;10992;48.170;8.596;2023-02-19T02:59:18;8.00;99.90
21662;DHT22;10992;48.170;8.596;2023-02-19T03:01:56;8.00;99.90
21662;DHT22;10992;48.170;8.596;2023-02-19T03:04:57;8.00;99.90
21662;DHT22;10992;48.170;8.596;2023-02-19T03:07:49;7.90;99.90
21662;DHT22;10992;48.170;8.596;2023-02-19T03:10:26;7.90;99.90
21662;DHT22;10992;48.170;8.596;2023-02-19T03:12:56;7.90;99.90
21662;DHT22;10992;48.170;8.596;2023-02-19T03:15:55;7.80;99.90
21662;DHT22;10992;48.170;8.596;2023-02-19T03:18:45;7.80;99.90
21662;DHT22;10992;48.170;8.596;2023-02-19T03:21:34;7.70;99.90
21662;DHT22;10992;48.170;8.596;2023-02-19T03:24:09;7.70;99.90
21662;DHT22;10992;48.170;8.596;2023-02-19T03:27:00;7.60;99.90
21662;DHT22;10992;48.170;8.596;2023-02-19T03:29:34;7.60;99.90
21662;DHT22;10992;48.170;8.596;2023-02-19T03:32:28;7.60;99.90
21662;DHT22;10992;48.170;8.596;2023-02-19T03:35:04;7.60;99.90
21662;DHT22;10992;48.170;8.596;2023-02-19T03:37:46;7.50;99.90
21662;DHT22;10992;48.170;8.596;2023-02-19T03:40:16;7.50;99.90
21662;DHT22;10992;48.170;8.596;2023-02-19T03:43:03;7.50;99.90
21662;DHT22;10992;48.170;8.596;2023-02-19T03:46:01;7.50;99.90
21662;DHT22;10992;48.170;8.596;2023-02-19T03:48:40;7.50;99.90
21662;DHT22;10992;48.170;8.596;2023-02-19T03:51:24;7.40;99.90
21662;DHT22;10992;48.170;8.596;2023-02-19T03:54:35;7.50;99.90
21662;DHT22;10992;48.170;8.596;2023-02-19T03:57:21;7.40;99.90
21662;DHT22;10992;48.170;8.596;2023-02-19T03:59:56;7.40;99.90
21662;DHT22;10992;48.170;8.596;2023-02-19T04:02:49;7.50;99.90
21662;DHT22;10992;48.170;8.596;2023-02-19T04:05:25;7.40;99.90
21662;DHT22;10992;48.170;8.596;2023-02-19T04:07:56;7.40;99.90
21662;DHT22;10992;48.170;8.596;2023-02-19T04:10:30;7.40;99.90
21662;DHT22;10992;48.170;8.596;2023-02-19T04:13:02;7.40;99.90
21662;DHT22;10992;48.170;8.596;2023-02-19T04:15:33;7.40;99.90
21662;DHT22;10992;48.170;8.596;2023-02-19T04:18:06;7.50;99.90
21662;DHT22;10992;48.170;8.596;2023-02-19T04:20:43;7.40;99.90
21662;DHT22;10992;48.170;8.596;2023-02-19T04:23:12;7.40;99.90
21662;DHT22;10992;48.170;8.596;2023-02-19T04:25:42;7.50;99.90
21662;DHT22;10992;48.170;8.596;2023-02-19T04:28:13;7.50;99.90
21662;DHT22;10992;48.170;8.596;2023-02-19T04:30:40;7.50;99.90
21662;DHT22;10992;48.170;8.596;2023-02-19T04:33:07;7.50;99.90
21662;DHT22;10992;48.170;8.596;2023-02-19T04:35:34;7.50;99.90
21662;DHT22;10992;48.170;8.596;2023-02-19T04:38:01;7.50;99.90
21662;DHT22;10992;48.170;8.596;2023-02-19T04:40:28;7.50;99.90
21662;DHT22;10992;48.170;8.596;2023-02-19T04:42:55;7.50;99.90
21662;DHT22;10992;48.170;8.596;2023-02-19T04:45:22;7.50;99.90
21662;DHT22;10992;48.170;8.596;2023-02-19T04:47:49;7.50;99.90
21662;DHT22;10992;48.170;8.596;2023-02-19T04:50:16;7.50;99.90
21662;DHT22;10992;48.170;8.596;2023-02-19T04:52:43;7.50;99.90
21662;DHT22;10992;48.170;8.596;2023-02-19T04:55:10;7.40;99.90
21662;DHT22;10992;48.170;8.596;2023-02-19T04:57:37;7.50;99.90
21662;DHT22;10992;48.170;8.596;2023-02-19T05:00:04;7.40;99.90
21662;DHT22;10992;48.170;8.596;2023-02-19T05:02:31;7.50;99.90
21662;DHT22;10992;48.170;8.596;2023-02-19T05:04:58;7.50;99.90
21662;DHT22;10992;48.170;8.596;2023-02-19T05:07:25;7.50;99.90
21662;DHT22;10992;48.170;8.596;2023-02-19T05:09:52;7.50;99.90
21662;DHT22;10992;48.170;8.596;2023-02-19T05:12:19;7.50;99.90
21662;DHT22;10992;48.170;8.596;2023-02-19T05:14:46;7.50;99.90
21662;DHT22;10992;48.170;8.596;2023-02-19T05:17:13;7.40;99.90
21662;DHT22;10992;48.170;8.596;2023-02-19T05:19:40;7.40;99.90
21662;DHT22;10992;48.170;8.596;2023-02-19T05:22:07;7.40;99.90
21662;DHT22;10992;48.170;8.596;2023-02-19T05:24:34;7.40;99.90
21662;DHT22;10992;48.170;8.596;2023-02-19T05:27:01;7.40;99.90
21662;DHT22;10992;48.170;8.596;2023-02-19T05:29:30;7.40;99.90
21662;DHT22;10992;48.170;8.596;2023-02-19T05:31:57;7.40;99.90
21662;DHT22;10992;48.170;8.596;2023-02-19T05:34:25;7.40;99.90
21662;DHT22;10992;48.170;8.596;2023-02-19T05:36:51;7.40;99.90
21662;DHT22;10992;48.170;8.596;2023-02-19T05:39:18;7.40;99.90
21662;DHT22;10992;48.170;8.596;2023-02-19T05:41:45;7.30;99.90
21662;DHT22;10992;48.170;8.596;2023-02-19T05:44:12;7.30;99.90
21662;DHT22;10992;48.170;8.596;2023-02-19T05:46:39;7.30;99.90
21662;DHT22;10992;48.170;8.596;2023-02-19T05:49:06;7.30;99.90
21662;DHT22;10992;48.170;8.596;2023-02-19T05:51:33;7.40;99.90
21662;DHT22;10992;48.170;8.596;2023-02-19T05:54:00;7.40;99.90
21662;DHT22;10992;48.170;8.596;2023-02-19T05:56:35;7.40;99.90
21662;DHT22;10992;48.170;8.596;2023-02-19T05:59:15;7.30;99.90
21662;DHT22;10992;48.170;8.596;2023-02-19T06:01:43;7.40;99.90
21662;DHT22;10992;48.170;8.596;2023-02-19T06:04:11;7.40;99.90
21662;DHT22;10992;48.170;8.596;2023-02-19T06:06:38;7.40;99.90
21662;DHT22;10992;48.170;8.596;2023-02-19T06:09:06;7.60;99.90
21662;DHT22;10992;48.170;8.596;2023-02-19T06:11:34;7.60;99.90
21662;DHT22;10992;48.170;8.596;2023-02-19T06:14:01;7.60;99.90
21662;DHT22;10992;48.170;8.596;2023-02-19T06:16:28;7.60;99.90
21662;DHT22;10992;48.170;8.596;2023-02-19T06:18:58;7.60;99.90
21662;DHT22;10992;48.170;8.596;2023-02-19T06:21:25;7.60;99.90
21662;DHT22;10992;48.170;8.596;2023-02-19T06:23:52;7.60;99.90
21662;DHT22;10992;48.170;8.596;2023-02-19T06:26:21;7.50;99.90
21662;DHT22;10992;48.170;8.596;2023-02-19T06:28:50;7.50;99.90
21662;DHT22;10992;48.170;8.596;2023-02-19T06:31:18;7.40;99.90
21662;DHT22;10992;48.170;8.596;2023-02-19T06:33:46;7.40;99.90
21662;DHT22;10992;48.170;8.596;2023-02-19T06:36:15;7.40;99.90
21662;DHT22;10992;48.170;8.596;2023-02-19T06:38:43;7.40;99.90
21662;DHT22;10992;48.170;8.596;2023-02-19T06:41:11;7.40;99.90
21662;DHT22;10992;48.170;8.596;2023-02-19T06:43:39;7.40;99.90
21662;DHT22;10992;48.170;8.596;2023-02-19T06:46:07;7.30;99.90
21662;DHT22;10992;48.170;8.596;2023-02-19T06:48:34;7.30;99.90
21662;DHT22;10992;48.170;8.596;2023-02-19T06:51:01;7.20;99.90
21662;DHT22;10992;48.170;8.596;2023-02-19T06:53:29;7.20;99.90
21662;DHT22;10992;48.170;8.596;2023-02-19T06:56:05;7.20;99.90
21662;DHT22;10992;48.170;8.596;2023-02-19T06:58:33;7.10;99.90
21662;DHT22;10992;48.170;8.596;2023-02-19T07:01:00;7.00;99.90
21662;DHT22;10992;48.170;8.596;2023-02-19T07:03:27;7.00;99.90
21662;DHT22;10992;48.170;8.596;2023-02-19T07:05:58;7.00;99.90
21662;DHT22;10992;48.170;8.596;2023-02-19T07:08:25;6.90;99.90
21662;DHT22;10992;48.170;8.596;2023-02-19T07:10:56;6.90;99.90
21662;DHT22;10992;48.170;8.596;2023-02-19T07:13:24;6.90;99.90
21662;DHT22;10992;48.170;8.596;2023-02-19T07:16:03;6.90;99.90
21662;DHT22;10992;48.170;8.596;2023-02-19T07:18:31;6.80;99.90
21662;DHT22;10992;48.170;8.596;2023-02-19T07:21:02;6.80;99.90
21662;DHT22;10992;48.170;8.596;2023-02-19T07:23:30;6.80;99.90
21662;DHT22;10992;48.170;8.596;2023-02-19T07:25:57;6.80;99.90
21662;DHT22;10992;48.170;8.596;2023-02-19T07:28:24;6.80;99.90
21662;DHT22;10992;48.170;8.596;2023-02-19T07:30:51;6.70;99.90
21662;DHT22;10992;48.170;8.596;2023-02-19T07:33:18;6.60;99.90
21662;DHT22;10992;48.170;8.596;2023-02-19T07:35:46;6.40;99.90
21662;DHT22;10992;48.170;8.596;2023-02-19T07:38:21;6.50;99.90
21662;DHT22;10992;48.170;8.596;2023-02-19T07:40:53;6.50;99.90
21662;DHT22;10992;48.170;8.596;2023-02-19T07:43:22;6.50;99.90
21662;DHT22;10992;48.170;8.596;2023-02-19T07:45:51;6.40;99.90
21662;DHT22;10992;48.170;8.596;2023-02-19T07:48:18;6.40;99.90
21662;DHT22;10992;48.170;8.596;2023-02-19T07:50:57;6.40;99.90
21662;DHT22;10992;48.170;8.596;2023-02-19T07:53:25;6.50;99.90
21662;DHT22;10992;48.170;8.596;2023-02-19T07:55:53;6.40;99.90
21662;DHT22;10992;48.170;8.596;2023-02-19T07:58:24;6.30;99.90
21662;DHT22;10992;48.170;8.596;2023-02-19T08:00:51;6.20;99.90
21662;DHT22;10992;48.170;8.596;2023-02-19T08:03:18;6.10;99.90
21662;DHT22;10992;48.170;8.596;2023-02-19T08:05:45;6.10;99.90
21662;DHT22;10992;48.170;8.596;2023-02-19T08:08:13;6.10;99.90
21662;DHT22;10992;48.170;8.596;2023-02-19T08:10:40;6.10;99.90
21662;DHT22;10992;48.170;8.596;2023-02-19T08:13:26;6.10;99.90
21662;DHT22;10992;48.170;8.596;2023-02-19T08:18:47;6.40;99.90
21662;DHT22;10992;48.170;8.596;2023-02-19T08:21:14;6.60;99.90
21662;DHT22;10992;48.170;8.596;2023-02-19T08:23:44;6.70;99.90
21662;DHT22;10992;48.170;8.596;2023-02-19T08:26:12;6.80;99.90
21662;DHT22;10992;48.170;8.596;2023-02-19T08:28:39;7.00;99.90
21662;DHT22;10992;48.170;8.596;2023-02-19T08:31:08;7.20;99.90
21662;DHT22;10992;48.170;8.596;2023-02-19T08:33:36;7.60;99.90
21662;DHT22;10992;48.170;8.596;2023-02-19T08:36:06;8.00;99.90
21662;DHT22;10992;48.170;8.596;2023-02-19T08:38:34;8.20;99.90
21662;DHT22;10992;48.170;8.596;2023-02-19T08:41:10;8.30;99.90
21662;DHT22;10992;48.170;8.596;2023-02-19T08:43:38;8.30;99.90
21662;DHT22;10992;48.170;8.596;2023-02-19T08:46:06;8.30;99.90
21662;DHT22;10992;48.170;8.596;2023-02-19T08:48:36;8.20;99.90
21662;DHT22;10992;48.170;8.596;2023-02-19T08:51:06;8.10;99.90
21662;DHT22;10992;48.170;8.596;2023-02-19T08:53:35;8.20;99.90
21662;DHT22;10992;48.170;8.596;2023-02-19T08:56:10;8.10;99.90
21662;DHT22;10992;48.170;8.596;2023-02-19T08:58:37;8.00;99.90
21662;DHT22;10992;48.170;8.596;2023-02-19T09:01:09;7.90;99.90
21662;DHT22;10992;48.170;8.596;2023-02-19T09:03:38;7.90;99.90
21662;DHT22;10992;48.170;8.596;2023-02-19T09:06:05;7.90;99.90
21662;DHT22;10992;48.170;8.596;2023-02-19T09:08:32;7.80;99.90
21662;DHT22;10992;48.170;8.596;2023-02-19T09:11:03;7.80;99.90
21662;DHT22;10992;48.170;8.596;2023-02-19T09:13:30;7.90;99.90
21662;DHT22;10992;48.170;8.596;2023-02-19T09:15:57;8.00;99.90
21662;DHT22;10992;48.170;8.596;2023-02-19T09:18:25;8.10;99.90
21662;DHT22;10992;48.170;8.596;2023-02-19T09:20:52;8.30;99.90
21662;DHT22;10992;48.170;8.596;2023-02-19T09:23:19;8.20;99.90
21662;DHT22;10992;48.170;8.596;2023-02-19T09:25:46;8.20;99.90
21662;DHT22;10992;48.170;8.596;2023-02-19T09:28:13;8.20;99.90
21662;DHT22;10992;48.170;8.596;2023-02-19T09:30:41;8.30;99.90
21662;DHT22;10992;48.170;8.596;2023-02-19T09:33:07;8.30;99.90
21662;DHT22;10992;48.170;8.596;2023-02-19T09:35:38;8.30;99.90
21662;DHT22;10992;48.170;8.596;2023-02-19T09:38:05;8.30;99.90
21662;DHT22;10992;48.170;8.596;2023-02-19T09:40:34;8.50;99.90
21662;DHT22;10992;48.170;8.596;2023-02-19T09:43:04;8.70;99.90
21662;DHT22;10992;48.170;8.596;2023-02-19T09:45:33;8.70;99.90
21662;DHT22;10992;48.170;8.596;2023-02-19T09:48:01;8.80;99.90
21662;DHT22;10992;48.170;8.596;2023-02-19T09:50:35;8.70;99.90
21662;DHT22;10992;48.170;8.596;2023-02-19T09:53:10;8.60;99.90
21662;DHT22;10992;48.170;8.596;2023-02-19T09:55:38;8.60;99.90
21662;DHT22;10992;48.170;8.596;2023-02-19T09:58:25;8.50;99.90
21662;DHT22;10992;48.170;8.596;2023-02-19T10:00:55;8.50;99.90
21662;DHT22;10992;48.170;8.596;2023-02-19T10:03:28;8.60;99.90
21662;DHT22;10992;48.170;8.596;2023-02-19T10:06:04;8.50;99.90
21662;DHT22;10992;48.170;8.596;2023-02-19T10:08:35;8.50;99.90
21662;DHT22;10992;48.170;8.596;2023-02-19T10:11:04;8.40;99.90
21662;DHT22;10992;48.170;8.596;2023-02-19T10:13:45;8.30;99.90
21662;DHT22;10992;48.170;8.596;2023-02-19T10:16:18;8.40;99.90
21662;DHT22;10992;48.170;8.596;2023-02-19T10:18:45;8.40;99.90
21662;DHT22;10992;48.170;8.596;2023-02-19T10:21:21;8.50;99.90
21662;DHT22;10992;48.170;8.596;2023-02-19T10:23:52;8.50;99.90
21662;DHT22;10992;48.170;8.596;2023-02-19T10:26:21;8.60;99.90
21662;DHT22;10992;48.170;8.596;2023-02-19T10:28:48;8.60;99.90
21662;DHT22;10992;48.170;8.596;2023-02-19T10:31:25;8.70;99.90
21662;DHT22;10992;48.170;8.596;2023-02-19T10:33:56;8.80;99.90
21662;DHT22;10992;48.170;8.596;2023-02-19T10:36:30;8.80;99.90
21662;DHT22;10992;48.170;8.596;2023-02-19T10:39:00;8.80;99.90
21662;DHT22;10992;48.170;8.596;2023-02-19T10:41:28;9.00;99.90
21662;DHT22;10992;48.170;8.596;2023-02-19T10:44:12;9.20;99.90
21662;DHT22;10992;48.170;8.596;2023-02-19T10:46:44;9.20;99.90
21662;DHT22;10992;48.170;8.596;2023-02-19T10:49:27;9.10;99.90
21662;DHT22;10992;48.170;8.596;2023-02-19T10:52:03;9.20;99.90
21662;DHT22;10992;48.170;8.596;2023-02-19T10:54:35;9.20;99.90
21662;DHT22;10992;48.170;8.596;2023-02-19T10:59:49;9.40;99.90
21662;DHT22;10992;48.170;8.596;2023-02-19T11:02:18;9.60;99.90
21662;DHT22;10992;48.170;8.596;2023-02-19T11:07:53;9.40;99.90
21662;DHT22;10992;48.170;8.596;2023-02-19T11:10:39;9.30;99.90
21662;DHT22;10992;48.170;8.596;2023-02-19T11:13:15;9.00;99.90
21662;DHT22;10992;48.170;8.596;2023-02-19T11:15:43;8.80;99.90
21662;DHT22;10992;48.170;8.596;2023-02-19T11:18:23;8.60;99.90
21662;DHT22;10992;48.170;8.596;2023-02-19T11:20:53;8.60;99.90
21662;DHT22;10992;48.170;8.596;2023-02-19T11:23:28;8.60;99.90
21662;DHT22;10992;48.170;8.596;2023-02-19T11:25:59;8.60;99.90
21662;DHT22;10992;48.170;8.596;2023-02-19T11:28:38;8.50;99.90
21662;DHT22;10992;48.170;8.596;2023-02-19T11:31:28;8.50;99.90
21662;DHT22;10992;48.170;8.596;2023-02-19T11:34:02;8.50;99.90
21662;DHT22;10992;48.170;8.596;2023-02-19T11:37:14;8.60;99.90
21662;DHT22;10992;48.170;8.596;2023-02-19T11:39:44;8.60;99.90
21662;DHT22;10992;48.170;8.596;2023-02-19T11:42:26;8.70;99.90
21662;DHT22;10992;48.170;8.596;2023-02-19T11:48:13;9.00;99.90
21662;DHT22;10992;48.170;8.596;2023-02-19T11:54:01;9.00;99.90
21662;DHT22;10992;48.170;8.596;2023-02-19T11:56:35;9.00;99.90
21662;DHT22;10992;48.170;8.596;2023-02-19T12:02:32;9.20;99.90
21662;DHT22;10992;48.170;8.596;2023-02-19T12:05:19;9.30;99.90
21662;DHT22;10992;48.170;8.596;2023-02-19T12:10:46;9.20;99.90
21662;DHT22;10992;48.170;8.596;2023-02-19T12:13:48;9.10;99.90
21662;DHT22;10992;48.170;8.596;2023-02-19T12:27:30;8.90;99.90
21662;DHT22;10992;48.170;8.596;2023-02-19T12:38:25;9.40;99.90
21662;DHT22;10992;48.170;8.596;2023-02-19T12:43:28;9.60;99.90
21662;DHT22;10992;48.170;8.596;2023-02-19T12:46:16;9.50;99.90
21662;DHT22;10992;48.170;8.596;2023-02-19T12:49:04;9.40;99.90
21662;DHT22;10992;48.170;8.596;2023-02-19T12:51:52;9.20;99.90
21662;DHT22;10992;48.170;8.596;2023-02-19T12:54:46;9.10;99.90
21662;DHT22;10992;48.170;8.596;2023-02-19T12:57:21;9.00;99.90
21662;DHT22;10992;48.170;8.596;2023-02-19T12:59:55;9.10;99.90
21662;DHT22;10992;48.170;8.596;2023-02-19T13:02:32;9.10;99.90
21662;DHT22;10992;48.170;8.596;2023-02-19T13:06:14;9.10;99.90
21662;DHT22;10992;48.170;8.596;2023-02-19T13:10:44;9.20;99.90
21662;DHT22;10992;48.170;8.596;2023-02-19T13:13:26;9.10;99.90
21662;DHT22;10992;48.170;8.596;2023-02-19T13:15:59;9.10;99.90
21662;DHT22;10992;48.170;8.596;2023-02-19T13:18:52;8.90;99.90
21662;DHT22;10992;48.170;8.596;2023-02-19T13:21:21;8.60;99.90
21662;DHT22;10992;48.170;8.596;2023-02-19T13:24:14;8.40;99.90
21662;DHT22;10992;48.170;8.596;2023-02-19T13:37:50;8.80;99.90
21662;DHT22;10992;48.170;8.596;2023-02-19T13:40:30;9.00;99.90
21662;DHT22;10992;48.170;8.596;2023-02-19T13:43:03;9.20;99.90
21662;DHT22;10992;48.170;8.596;2023-02-19T13:45:38;9.20;99.90
21662;DHT22;10992;48.170;8.596;2023-02-19T13:48:26;9.20;99.90
21662;DHT22;10992;48.170;8.596;2023-02-19T13:59:37;9.10;99.90
21662;DHT22;10992;48.170;8.596;2023-02-19T14:02:28;9.10;99.90
21662;DHT22;10992;48.170;8.596;2023-02-19T14:05:03;9.20;99.90
21662;DHT22;10992;48.170;8.596;2023-02-19T14:09:57;9.00;99.90
21662;DHT22;10992;48.170;8.596;2023-02-19T14:12:33;9.00;99.90
21662;DHT22;10992;48.170;8.596;2023-02-19T14:15:39;8.90;99.90
21662;DHT22;10992;48.170;8.596;2023-02-19T14:18:48;9.10;99.90
21662;DHT22;10992;48.170;8.596;2023-02-19T14:21:22;9.20;99.90
21662;DHT22;10992;48.170;8.596;2023-02-19T14:23:55;9.10;99.90
21662;DHT22;10992;48.170;8.596;2023-02-19T14:26:25;8.90;99.90
21662;DHT22;10992;48.170;8.596;2023-02-19T14:28:53;8.90;99.90
21662;DHT22;10992;48.170;8.596;2023-02-19T14:31:27;8.80;99.90
21662;DHT22;10992;48.170;8.596;2023-02-19T14:33:57;8.80;99.90
21662;DHT22;10992;48.170;8.596;2023-02-19T14:41:30;8.60;99.90
21662;DHT22;10992;48.170;8.596;2023-02-19T14:43:59;8.60;99.90
21662;DHT22;10992;48.170;8.596;2023-02-19T14:46:30;8.50;99.90
21662;DHT22;10992;48.170;8.596;2023-02-19T14:49:04;8.50;99.90
21662;DHT22;10992;48.170;8.596;2023-02-19T14:51:37;8.50;99.90
21662;DHT22;10992;48.170;8.596;2023-02-19T14:57:49;8.30;99.90
21662;DHT22;10992;48.170;8.596;2023-02-19T15:02:53;8.20;99.90
21662;DHT22;10992;48.170;8.596;2023-02-19T15:07:58;8.10;99.90
21662;DHT22;10992;48.170;8.596;2023-02-19T15:10:28;8.10;99.90
21662;DHT22;10992;48.170;8.596;2023-02-19T15:12:59;8.00;99.90
21662;DHT22;10992;48.170;8.596;2023-02-19T15:15:29;8.00;99.90
21662;DHT22;10992;48.170;8.596;2023-02-19T15:17:59;7.90;99.90
21662;DHT22;10992;48.170;8.596;2023-02-19T15:20:29;7.80;99.90
21662;DHT22;10992;48.170;8.596;2023-02-19T15:22:57;7.70;99.90
21662;DHT22;10992;48.170;8.596;2023-02-19T15:25:34;7.80;99.90
21662;DHT22;10992;48.170;8.596;2023-02-19T15:28:26;7.70;99.90
21662;DHT22;10992;48.170;8.596;2023-02-19T15:33:26;7.70;99.90
21662;DHT22;10992;48.170;8.596;2023-02-19T15:35:56;7.70;99.90
21662;DHT22;10992;48.170;8.596;2023-02-19T15:38:24;7.70;99.90
21662;DHT22;10992;48.170;8.596;2023-02-19T15:40:52;7.70;99.90
21662;DHT22;10992;48.170;8.596;2023-02-19T15:43:30;7.70;99.90
21662;DHT22;10992;48.170;8.596;2023-02-19T15:46:03;7.70;99.90
21662;DHT22;10992;48.170;8.596;2023-02-19T15:48:40;7.70;99.90
21662;DHT22;10992;48.170;8.596;2023-02-19T15:51:15;7.70;99.90
21662;DHT22;10992;48.170;8.596;2023-02-19T15:53:47;7.70;99.90
21662;DHT22;10992;48.170;8.596;2023-02-19T16:01:30;7.50;99.90
21662;DHT22;10992;48.170;8.596;2023-02-19T16:03:58;7.50;99.90
21662;DHT22;10992;48.170;8.596;2023-02-19T16:06:26;7.50;99.90
21662;DHT22;10992;48.170;8.596;2023-02-19T16:11:52;7.40;99.90
21662;DHT22;10992;48.170;8.596;2023-02-19T16:17:13;7.40;99.90
21662;DHT22;10992;48.170;8.596;2023-02-19T16:19:50;7.20;99.90
21662;DHT22;10992;48.170;8.596;2023-02-19T16:22:20;7.30;99.90
21662;DHT22;10992;48.170;8.596;2023-02-19T16:25:00;7.20;99.90
21662;DHT22;10992;48.170;8.596;2023-02-19T16:27:32;7.20;99.90
21662;DHT22;10992;48.170;8.596;2023-02-19T16:30:53;7.10;99.90
21662;DHT22;10992;48.170;8.596;2023-02-19T16:41:25;7.00;99.90
21662;DHT22;10992;48.170;8.596;2023-02-19T16:43:52;7.00;99.90
21662;DHT22;10992;48.170;8.596;2023-02-19T16:46:19;6.90;99.90
21662;DHT22;10992;48.170;8.596;2023-02-19T16:48:46;6.90;99.90
21662;DHT22;10992;48.170;8.596;2023-02-19T16:51:20;6.90;99.90
21662;DHT22;10992;48.170;8.596;2023-02-19T16:53:49;6.80;99.90
21662;DHT22;10992;48.170;8.596;2023-02-19T16:56:17;6.80;99.90
21662;DHT22;10992;48.170;8.596;2023-02-19T16:58:46;6.80;99.90
21662;DHT22;10992;48.170;8.596;2023-02-19T17:01:13;6.70;99.90
21662;DHT22;10992;48.170;8.596;2023-02-19T17:03:41;6.80;99.90
21662;DHT22;10992;48.170;8.596;2023-02-19T17:06:08;6.80;99.90
21662;DHT22;10992;48.170;8.596;2023-02-19T17:08:40;6.80;99.90
21662;DHT22;10992;48.170;8.596;2023-02-19T17:11:15;6.70;99.90
21662;DHT22;10992;48.170;8.596;2023-02-19T17:13:44;6.60;99.90
21662;DHT22;10992;48.170;8.596;2023-02-19T17:16:23;6.60;99.90
21662;DHT22;10992;48.170;8.596;2023-02-19T17:18:51;6.60;99.90
21662;DHT22;10992;48.170;8.596;2023-02-19T17:21:27;6.60;99.90
21662;DHT22;10992;48.170;8.596;2023-02-19T17:23:54;6.60;99.90
21662;DHT22;10992;48.170;8.596;2023-02-19T17:26:25;6.60;99.90
21662;DHT22;10992;48.170;8.596;2023-02-19T17:29:02;6.60;99.90
21662;DHT22;10992;48.170;8.596;2023-02-19T17:31:30;6.50;99.90
21662;DHT22;10992;48.170;8.596;2023-02-19T17:33:57;6.60;99.90
21662;DHT22;10992;48.170;8.596;2023-02-19T17:36:27;6.50;99.90
21662;DHT22;10992;48.170;8.596;2023-02-19T17:38:58;6.50;99.90
21662;DHT22;10992;48.170;8.596;2023-02-19T17:41:25;6.50;99.90
21662;DHT22;10992;48.170;8.596;2023-02-19T17:43:52;6.50;99.90
21662;DHT22;10992;48.170;8.596;2023-02-19T17:46:22;6.50;99.90
21662;DHT22;10992;48.170;8.596;2023-02-19T17:48:50;6.50;99.90
21662;DHT22;10992;48.170;8.596;2023-02-19T17:51:17;6.50;99.90
21662;DHT22;10992;48.170;8.596;2023-02-19T17:53:44;6.50;99.90
21662;DHT22;10992;48.170;8.596;2023-02-19T17:56:20;6.50;99.90
21662;DHT22;10992;48.170;8.596;2023-02-19T17:58:47;6.50;99.90
21662;DHT22;10992;48.170;8.596;2023-02-19T18:01:14;6.50;99.90
21662;DHT22;10992;48.170;8.596;2023-02-19T18:03:42;6.50;99.90
21662;DHT22;10992;48.170;8.596;2023-02-19T18:06:08;6.50;99.90
21662;DHT22;10992;48.170;8.596;2023-02-19T18:08:36;6.50;99.90
21662;DHT22;10992;48.170;8.596;2023-02-19T18:11:03;6.50;99.90
21662;DHT22;10992;48.170;8.596;2023-02-19T18:13:32;6.50;99.90
21662;DHT22;10992;48.170;8.596;2023-02-19T18:15:58;6.50;99.90
21662;DHT22;10992;48.170;8.596;2023-02-19T18:18:25;6.50;99.90
21662;DHT22;10992;48.170;8.596;2023-02-19T18:20:52;6.50;99.90